Time;durP1;ratioP1;P1;durP2;ratioP2;P2;SDS_P1;SDS_P2;PMS_P1;PMS_P2;Temp;Humidity;BMP_temperature;BMP_pressure;BME280_temperature;BME280_humidity;BME280_pressure;Samples;Min_cycle;Max_cycle;Signal;HPM_P1;HPM_P2
2020/12/24 00:02:13;;;;;;;0.13;0.13;;;;;;;5.98;79.24;99725.09;4916169;29;20039;-77
2020/12/24 00:04:38;;;;;;;0.22;0.03;;;;;;;6.00;78.89;99734.63;4930051;29;20062;-76
2020/12/24 00:07:04;;;;;;;0.20;0.00;;;;;;;6.04;79.27;99734.94;4930734;29;20517;-76
2020/12/24 00:09:29;;;;;;;0.90;0.10;;;;;;;6.08;79.77;99752.38;4922178;29;20118;-76
2020/12/24 00:11:55;;;;;;;0.00;0.00;;;;;;;6.10;79.27;99740.19;4922627;29;20078;-76
2020/12/24 00:14:21;;;;;;;0.03;0.00;;;;;;;6.18;79.49;99759.81;4922873;29;20157;-76
2020/12/24 00:16:47;;;;;;;2.28;0.10;;;;;;;6.21;79.52;99762.03;4917465;29;20039;-75
2020/12/24 00:19:12;;;;;;;0.32;0.25;;;;;;;6.22;80.25;99764.50;4921138;29;20036;-77
2020/12/24 00:21:38;;;;;;;0.52;0.13;;;;;;;6.26;79.81;99776.50;4907796;29;20130;-77
2020/12/24 00:24:04;;;;;;;0.00;0.00;;;;;;;6.36;80.47;99774.97;4927657;29;20039;-79
2020/12/24 00:26:30;;;;;;;1.60;0.10;;;;;;;6.42;80.31;99790.22;4922239;29;20054;-78
2020/12/24 00:28:56;;;;;;;0.05;0.00;;;;;;;6.42;80.05;99790.22;4922118;29;20367;-80
2020/12/24 00:31:22;;;;;;;0.13;0.00;;;;;;;6.45;80.24;99790.56;4898784;29;20043;-77
2020/12/24 00:33:47;;;;;;;3.38;0.15;;;;;;;6.52;80.71;99806.63;4922260;29;20031;-75
2020/12/24 00:36:13;;;;;;;2.05;0.10;;;;;;;6.51;80.75;99793.31;4929862;29;20497;-76
2020/12/24 00:38:38;;;;;;;0.00;0.00;;;;;;;6.53;81.23;99807.47;4931580;29;20032;-78
2020/12/24 00:41:06;;;;;;;0.08;0.08;;;;;;;6.56;80.96;99840.38;4924514;29;20052;-77
2020/12/24 00:43:31;;;;;;;1.25;0.10;;;;;;;6.62;81.02;99823.06;4922115;29;20038;-77
2020/12/24 00:45:57;;;;;;;0.38;0.10;;;;;;;6.71;79.32;99841.63;4943463;29;20020;-78
2020/12/24 00:48:22;;;;;;;3.40;0.30;;;;;;;6.75;78.90;99843.59;4945848;29;20109;-78
2020/12/24 00:50:48;;;;;;;0.10;0.10;;;;;;;6.80;79.19;99854.53;4955495;29;20095;-78
2020/12/24 00:53:13;;;;;;;0.73;0.20;;;;;;;6.82;78.75;99876.00;4939228;29;20042;-78
2020/12/24 00:55:38;;;;;;;0.20;0.10;;;;;;;6.84;79.24;99878.47;4934584;29;20043;-78
2020/12/24 00:58:04;;;;;;;1.10;0.10;;;;;;;6.81;79.31;99891.47;4913058;29;20031;-78
2020/12/24 01:00:29;;;;;;;0.82;0.20;;;;;;;6.86;78.04;99909.72;4933611;29;20028;-78
2020/12/24 01:02:55;;;;;;;3.22;0.30;;;;;;;6.84;78.58;99921.97;4926839;29;20059;-82
2020/12/24 01:05:20;;;;;;;0.10;0.10;;;;;;;6.87;78.43;99916.00;4900469;29;20518;-82
2020/12/24 01:07:46;;;;;;;0.55;0.15;;;;;;;6.92;79.03;99914.19;4926370;29;20537;-81
2020/12/24 01:10:11;;;;;;;0.93;0.20;;;;;;;6.89;77.60;99930.16;4916112;29;20055;-76
2020/12/24 01:12:37;;;;;;;0.30;0.10;;;;;;;6.87;77.72;99945.91;4899308;29;20068;-77
2020/12/24 01:15:06;;;;;;;1.27;0.20;;;;;;;6.81;78.54;99940.41;4893688;29;20064;-77
2020/12/24 01:17:32;;;;;;;1.40;0.28;;;;;;;6.84;77.61;99941.78;4931241;29;20027;-77
2020/12/24 01:19:57;;;;;;;0.47;0.10;;;;;;;6.87;77.97;99954.06;4923899;29;20035;-76
2020/12/24 01:22:22;;;;;;;1.77;0.20;;;;;;;6.91;78.03;99955.22;4899742;29;20032;-77
2020/12/24 01:24:48;;;;;;;5.07;0.13;;;;;;;6.96;78.02;99963.41;4893185;29;20055;-77
2020/12/24 01:27:13;;;;;;;0.60;0.10;;;;;;;6.93;78.13;99969.34;4886712;29;20027;-77
2020/12/24 01:29:38;;;;;;;0.93;0.20;;;;;;;6.97;77.59;99976.75;4897212;29;20032;-78
2020/12/24 01:32:04;;;;;;;0.40;0.20;;;;;;;6.97;77.04;99995.78;4917480;29;20074;-76
2020/12/24 01:34:29;;;;;;;3.03;0.20;;;;;;;6.97;77.50;100003.94;4888141;29;20178;-77
2020/12/24 01:37:00;;;;;;;1.33;0.20;;;;;;;6.96;76.78;100001.47;4925796;29;20035;-76
2020/12/24 01:39:25;;;;;;;5.90;0.30;;;;;;;6.95;77.26;100006.09;4919343;29;20048;-76
2020/12/24 01:41:50;;;;;;;0.63;0.20;;;;;;;6.85;76.96;100005.13;4885646;29;20039;-76
2020/12/24 01:44:16;;;;;;;0.85;0.47;;;;;;;6.95;77.12;100011.53;4903547;29;20063;-76
2020/12/24 01:46:41;;;;;;;1.95;0.55;;;;;;;6.98;77.84;100004.78;4910787;29;20467;-76
2020/12/24 01:49:07;;;;;;;1.85;0.30;;;;;;;7.04;77.97;100024.66;4907643;29;20036;-77
2020/12/24 01:51:34;;;;;;;0.98;0.30;;;;;;;7.08;77.48;100026.66;4894630;29;20482;-77
2020/12/24 01:53:59;;;;;;;4.22;0.75;;;;;;;7.10;77.42;100051.69;4933261;29;20541;-77
2020/12/24 01:56:26;;;;;;;3.78;0.60;;;;;;;7.09;77.60;100060.91;4905029;29;20028;-76
2020/12/24 01:58:53;;;;;;;0.68;0.45;;;;;;;7.09;77.28;100077.22;4918139;29;20028;-76
2020/12/24 02:01:20;;;;;;;1.17;0.38;;;;;;;7.10;77.05;100089.75;4922397;29;20064;-76
2020/12/24 02:03:45;;;;;;;1.67;0.50;;;;;;;7.08;76.57;100085.63;4907782;29;20032;-76
2020/12/24 02:06:11;;;;;;;0.88;0.20;;;;;;;7.11;76.38;100102.28;4919623;29;20086;-76
2020/12/24 02:08:37;;;;;;;3.05;0.20;;;;;;;7.12;76.79;100114.78;4913341;29;20439;-75
2020/12/24 02:11:03;;;;;;;4.68;0.30;;;;;;;7.09;76.01;100115.28;4912138;29;20035;-75
2020/12/24 02:13:29;;;;;;;1.65;0.47;;;;;;;7.11;76.85;100128.63;4887289;29;20035;-76
2020/12/24 02:15:54;;;;;;;0.40;0.30;;;;;;;7.07;76.66;100125.59;4897247;29;20074;-76
2020/12/24 02:18:20;;;;;;;5.38;0.60;;;;;;;7.06;77.21;100136.72;4884914;29;20032;-75
2020/12/24 02:20:46;;;;;;;2.85;0.70;;;;;;;7.04;76.59;100139.69;4915954;29;20036;-74
2020/12/24 02:23:12;;;;;;;0.70;0.38;;;;;;;7.10;76.30;100152.28;4929507;29;20738;-75
2020/12/24 02:25:40;;;;;;;0.47;0.15;;;;;;;7.09;77.02;100169.66;4893275;29;20028;-75
2020/12/24 02:28:05;;;;;;;0.57;0.10;;;;;;;7.10;76.78;100171.31;4913538;29;20059;-75
2020/12/24 02:30:31;;;;;;;1.35;0.30;;;;;;;7.13;76.74;100181.69;4921103;29;20129;-75
2020/12/24 02:32:56;;;;;;;0.52;0.10;;;;;;;7.15;75.91;100182.28;4927814;29;20582;-75
2020/12/24 02:35:22;;;;;;;1.15;0.20;;;;;;;7.18;76.97;100191.81;4919182;29;20031;-76
2020/12/24 02:37:47;;;;;;;1.35;0.32;;;;;;;7.20;76.02;100202.44;4902050;29;20051;-76
2020/12/24 02:40:13;;;;;;;0.55;0.25;;;;;;;7.24;76.62;100203.59;4923878;29;20103;-75
2020/12/24 02:42:38;;;;;;;0.22;0.22;;;;;;;7.24;75.85;100204.44;4929470;29;20036;-75
2020/12/24 02:45:05;;;;;;;0.35;0.32;;;;;;;7.27;76.73;100205.81;4913970;29;20442;-77
2020/12/24 02:47:31;;;;;;;0.68;0.20;;;;;;;7.27;75.96;100213.97;4923688;29;20466;-75
2020/12/24 02:49:57;;;;;;;3.47;0.40;;;;;;;7.26;76.39;100220.53;4918670;29;20067;-76
2020/12/24 02:52:24;;;;;;;1.48;0.40;;;;;;;7.25;76.93;100210.69;4936002;29;20063;-75
2020/12/24 02:54:50;;;;;;;0.35;0.25;;;;;;;7.20;77.06;100226.94;4925256;29;20046;-77
2020/12/24 02:57:15;;;;;;;1.05;0.30;;;;;;;7.21;76.43;100226.69;4919630;29;20036;-76
2020/12/24 02:59:41;;;;;;;0.20;0.20;;;;;;;7.24;76.41;100209.88;4922012;29;20039;-76
2020/12/24 03:02:06;;;;;;;2.25;0.65;;;;;;;7.28;76.56;100204.75;4912782;29;20027;-77
2020/12/24 03:04:33;;;;;;;0.35;0.20;;;;;;;7.29;76.39;100222.75;4932402;29;20130;-76
2020/12/24 03:06:59;;;;;;;0.50;0.30;;;;;;;7.23;76.58;100218.28;4937304;29;20023;-76
2020/12/24 03:09:24;;;;;;;4.53;0.20;;;;;;;7.23;75.90;100229.16;4912520;29;20024;-76
2020/12/24 03:11:50;;;;;;;0.95;0.20;;;;;;;7.25;77.20;100240.63;4939907;29;20036;-76
2020/12/24 03:14:20;;;;;;;0.50;0.20;;;;;;;7.24;76.68;100258.00;4929336;29;20038;-77
2020/12/24 03:16:46;;;;;;;0.88;0.20;;;;;;;7.18;76.58;100275.31;4935533;29;20039;-75
2020/12/24 03:19:13;;;;;;;0.20;0.10;;;;;;;7.25;76.26;100281.41;4927082;29;20046;-74
2020/12/24 03:21:38;;;;;;;0.25;0.20;;;;;;;7.32;76.62;100291.06;4931101;29;20110;-75
2020/12/24 03:24:04;;;;;;;3.65;0.20;;;;;;;7.34;75.32;100294.38;4927767;29;20126;-76
2020/12/24 03:26:30;;;;;;;3.42;0.20;;;;;;;7.32;75.46;100309.28;4932705;29;20028;-77
2020/12/24 03:28:56;;;;;;;1.35;0.95;;;;;;;7.32;76.59;100295.69;4909994;29;20035;-77
2020/12/24 03:31:26;;;;;;;2.58;0.25;;;;;;;7.37;76.40;100305.81;4934773;28;20071;-76
2020/12/24 03:33:55;;;;;;;0.10;0.10;;;;;;;7.40;76.68;100325.16;4931744;29;20110;-75
2020/12/24 03:36:21;;;;;;;0.20;0.10;;;;;;;7.44;75.96;100322.78;4928206;29;20032;-76
2020/12/24 03:38:47;;;;;;;0.35;0.13;;;;;;;7.41;75.58;100326.81;4923104;29;20079;-77
2020/12/24 03:41:13;;;;;;;0.20;0.13;;;;;;;7.38;75.95;100332.78;4916278;29;20047;-76
2020/12/24 03:43:38;;;;;;;0.90;0.20;;;;;;;7.47;75.49;100354.94;4930709;29;20043;-77
2020/12/24 03:46:04;;;;;;;0.70;0.10;;;;;;;7.47;74.51;100355.75;4925650;29;20398;-76
2020/12/24 03:48:29;;;;;;;0.65;0.20;;;;;;;7.44;75.43;100353.53;4920789;29;20486;-76
2020/12/24 03:50:55;;;;;;;0.98;0.20;;;;;;;7.40;74.36;100351.56;4925492;29;20479;-75
2020/12/24 03:53:21;;;;;;;0.43;0.15;;;;;;;7.42;75.37;100366.56;4911391;29;20035;-75
2020/12/24 03:55:46;;;;;;;0.00;0.00;;;;;;;7.39;75.29;100358.91;4933273;29;20039;-74
2020/12/24 03:58:12;;;;;;;0.90;0.20;;;;;;;7.33;74.79;100365.34;4933708;29;20027;-76
2020/12/24 04:00:39;;;;;;;0.00;0.00;;;;;;;7.43;75.31;100378.28;4930593;29;20091;-77
2020/12/24 04:03:05;;;;;;;0.25;0.10;;;;;;;7.44;75.28;100369.88;4935145;29;20024;-77
2020/12/24 04:05:30;;;;;;;0.57;0.10;;;;;;;7.44;74.90;100378.03;4928362;29;20035;-76
2020/12/24 04:07:55;;;;;;;0.10;0.10;;;;;;;7.41;75.53;100383.97;4903397;29;20020;-76
2020/12/24 04:10:21;;;;;;;1.45;0.10;;;;;;;7.38;75.76;100378.19;4910618;29;20466;-76
2020/12/24 04:12:46;;;;;;;0.75;0.30;;;;;;;7.33;74.16;100392.53;4916376;29;20040;-75
2020/12/24 04:15:12;;;;;;;0.93;0.30;;;;;;;7.34;74.29;100408.63;4913391;29;20040;-76
2020/12/24 04:17:37;;;;;;;0.47;0.40;;;;;;;7.35;74.68;100412.16;4931353;29;20448;-76
2020/12/24 04:20:03;;;;;;;2.15;0.55;;;;;;;7.33;74.22;100408.88;4935913;29;20063;-75
2020/12/24 04:22:29;;;;;;;0.75;0.20;;;;;;;7.36;73.60;100423.84;4914329;29;20511;-75
2020/12/24 04:24:54;;;;;;;0.82;0.15;;;;;;;7.39;73.57;100429.66;4935082;29;20023;-75
2020/12/24 04:27:20;;;;;;;0.93;0.35;;;;;;;7.34;73.07;100424.09;4930137;29;20033;-74
2020/12/24 04:29:45;;;;;;;4.88;0.30;;;;;;;7.31;72.96;100432.75;4946618;29;20740;-74
2020/12/24 04:32:11;;;;;;;0.68;0.30;;;;;;;7.29;72.75;100441.16;4952833;29;20037;-75
2020/12/24 04:34:36;;;;;;;0.88;0.15;;;;;;;7.29;72.49;100462.09;4950575;29;20028;-74
2020/12/24 04:37:01;;;;;;;3.95;0.20;;;;;;;7.25;73.09;100461.75;4938493;29;20020;-75
2020/12/24 04:39:27;;;;;;;2.88;0.75;;;;;;;7.24;73.49;100479.16;4939057;29;20032;-75
2020/12/24 04:41:53;;;;;;;4.10;0.43;;;;;;;7.15;72.77;100470.56;4924008;29;20051;-75
2020/12/24 04:44:19;;;;;;;2.80;0.50;;;;;;;7.09;72.96;100485.09;4929480;29;20044;-74
2020/12/24 04:46:47;;;;;;;3.17;0.43;;;;;;;6.99;73.39;100485.75;4931115;29;20090;-74
2020/12/24 04:49:14;;;;;;;4.78;0.70;;;;;;;6.91;72.73;100496.97;4927587;29;20027;-75
2020/12/24 04:51:43;;;;;;;3.80;0.30;;;;;;;6.87;72.44;100503.16;4928605;29;20027;-76
2020/12/24 04:54:09;;;;;;;0.57;0.43;;;;;;;6.76;72.30;100513.78;4929608;29;20122;-76
2020/12/24 04:56:35;;;;;;;6.53;0.52;;;;;;;6.71;73.22;100531.88;4902728;29;20114;-76
2020/12/24 04:59:01;;;;;;;4.15;0.40;;;;;;;6.66;73.20;100524.44;4909146;29;21094;-74
2020/12/24 05:01:27;;;;;;;2.53;0.50;;;;;;;6.55;73.08;100528.00;4931762;29;20032;-75
2020/12/24 05:03:55;;;;;;;3.92;0.30;;;;;;;6.50;73.15;100533.28;4912593;29;20032;-75
2020/12/24 05:06:20;;;;;;;1.00;0.30;;;;;;;6.48;73.15;100544.41;4918566;29;20107;-75
2020/12/24 05:08:56;;;;;;;0.93;0.32;;;;;;;6.47;73.62;100553.63;4922235;29;20032;-76
2020/12/24 05:11:25;;;;;;;2.95;0.38;;;;;;;6.43;73.03;100552.44;4924687;29;20110;-75
2020/12/24 05:13:51;;;;;;;0.57;0.28;;;;;;;6.30;73.17;100556.19;4926647;29;20051;-77
2020/12/24 05:16:17;;;;;;;1.00;0.60;;;;;;;6.27;72.98;100554.78;4911616;29;20111;-76
2020/12/24 05:18:42;;;;;;;2.95;0.50;;;;;;;6.18;72.42;100571.66;4893536;29;20030;-75
2020/12/24 05:21:08;;;;;;;2.60;0.45;;;;;;;6.09;73.13;100568.47;4907058;29;20035;-75
2020/12/24 05:23:33;;;;;;;3.13;0.55;;;;;;;6.00;73.10;100586.97;4905819;29;20035;-76
2020/12/24 05:25:59;;;;;;;0.63;0.20;;;;;;;5.90;73.35;100587.47;4918250;29;20078;-75
2020/12/24 05:28:26;;;;;;;6.38;0.98;;;;;;;5.79;73.21;100592.88;4909923;29;20023;-73
2020/12/24 05:30:53;;;;;;;2.70;0.30;;;;;;;5.68;73.63;100608.88;4899758;29;20039;-76
2020/12/24 05:33:29;;;;;;;2.50;0.35;;;;;;;5.61;73.23;100621.69;4917155;29;20055;-74
2020/12/24 05:36:12;;;;;;;;;;;;;;;5.52;73.37;100631.19;4915806;29;20036;-75
2020/12/24 05:38:38;;;;;;;6.30;0.50;;;;;;;5.44;73.29;100636.94;4907518;29;20416;-74
2020/12/24 05:41:32;;;;;;;1.15;0.20;;;;;;;5.42;73.44;100629.03;4899526;29;20143;-74
2020/12/24 05:43:59;;;;;;;1.02;0.40;;;;;;;5.36;74.10;100646.19;4918181;29;20023;-74
2020/12/24 05:46:27;;;;;;;0.65;0.15;;;;;;;5.33;74.60;100652.06;4932456;29;20027;-75
2020/12/24 05:48:53;;;;;;;0.80;0.30;;;;;;;5.31;75.12;100649.56;4923783;29;20020;-77
2020/12/24 05:51:19;;;;;;;4.03;0.50;;;;;;;5.25;75.07;100664.03;4930367;29;20091;-77
2020/12/24 05:53:45;;;;;;;4.22;0.77;;;;;;;5.17;74.85;100670.59;4922268;29;20491;-77
2020/12/24 05:56:22;;;;;;;2.38;0.45;;;;;;;4.99;75.63;100657.81;4930653;29;20035;-76
2020/12/24 05:58:48;;;;;;;0.98;0.50;;;;;;;5.00;75.44;100696.63;4930596;29;20021;-76
2020/12/24 06:01:15;;;;;;;3.80;0.52;;;;;;;4.93;74.99;100696.66;4930827;29;20410;-76
2020/12/24 06:04:02;;;;;;;5.10;0.85;;;;;;;4.88;75.71;100704.66;4930788;29;20575;-77
2020/12/24 06:06:45;;;;;;;2.80;0.20;;;;;;;4.83;75.47;100707.19;4935047;29;20517;-76
2020/12/24 06:09:16;;;;;;;1.02;0.45;;;;;;;4.85;75.18;100708.63;4915869;29;20062;-77
2020/12/24 06:11:46;;;;;;;0.60;0.30;;;;;;;4.89;75.33;100717.97;4941968;28;20445;-77
2020/12/24 06:14:15;;;;;;;7.40;0.80;;;;;;;4.94;75.31;100709.16;4930742;29;20070;-77
2020/12/24 06:16:43;;;;;;;1.98;0.88;;;;;;;4.95;75.13;100732.53;4931603;29;20478;-76
2020/12/24 06:19:12;;;;;;;2.85;0.20;;;;;;;4.89;75.26;100742.38;4924199;29;20450;-75
2020/12/24 06:21:41;;;;;;;1.48;0.43;;;;;;;4.78;74.52;100731.41;4924996;29;20028;-76
2020/12/24 06:24:09;;;;;;;2.42;0.70;;;;;;;4.61;74.59;100748.16;4927141;29;20038;-76
2020/12/24 06:26:39;;;;;;;4.93;0.45;;;;;;;4.54;75.04;100763.63;4943404;28;20036;-77
2020/12/24 06:29:05;;;;;;;2.05;0.30;;;;;;;4.46;75.16;100755.78;4936100;29;20031;-76
2020/12/24 06:31:33;;;;;;;1.55;0.57;;;;;;;4.39;75.86;100771.25;4911302;29;20039;-76
2020/12/24 06:34:25;;;;;;;1.88;0.32;;;;;;;4.28;75.08;100776.28;4919919;29;20035;-75
2020/12/24 06:36:51;;;;;;;3.40;0.28;;;;;;;4.14;75.97;100770.09;4906400;29;20078;-76
2020/12/24 06:39:46;;;;;;;3.90;0.63;;;;;;;4.17;75.52;100791.31;4933514;29;20039;-76
2020/12/24 06:42:36;;;;;;;6.10;0.40;;;;;;;4.10;75.55;100803.22;4937561;29;20039;-76
2020/12/24 06:45:25;;;;;;;3.13;0.52;;;;;;;4.02;75.96;100815.13;4927339;29;20103;-76
2020/12/24 06:48:13;;;;;;;1.65;0.63;;;;;;;3.95;75.88;100831.38;4926230;29;20069;-76
2020/12/24 06:50:42;;;;;;;2.55;0.50;;;;;;;3.91;76.34;100835.53;4925849;29;20075;-76
2020/12/24 06:53:28;;;;;;;0.80;0.40;;;;;;;3.87;76.12;100837.03;4923263;29;20059;-76
2020/12/24 06:56:19;;;;;;;1.30;0.30;;;;;;;3.86;76.12;100848.88;4924872;29;20035;-76
2020/12/24 06:58:55;;;;;;;7.20;0.73;;;;;;;3.81;76.57;100857.63;4939230;28;20034;-76
2020/12/24 07:01:27;;;;;;;;;;;;;;;3.74;76.24;100855.97;4933968;29;20028;-77
2020/12/24 07:03:57;;;;;;;4.30;0.60;;;;;;;3.67;76.79;100851.41;4931517;29;19914;-76
2020/12/24 07:06:41;;;;;;;0.93;0.20;;;;;;;3.67;77.01;100856.81;4918498;29;20610;-75
2020/12/24 07:09:11;;;;;;;7.82;0.52;;;;;;;3.65;77.06;100863.47;4924819;29;20032;-76
2020/12/24 07:11:41;;;;;;;1.02;0.47;;;;;;;3.62;77.31;100864.72;4915337;29;20083;-76
2020/12/24 07:14:26;;;;;;;1.65;0.57;;;;;;;3.59;77.00;100878.69;4929060;29;20067;-76
2020/12/24 07:16:52;;;;;;;6.65;0.45;;;;;;;3.56;77.69;100878.25;4920624;29;20482;-76
2020/12/24 07:19:22;;;;;;;1.45;0.30;;;;;;;3.51;76.90;100889.69;4912451;29;20036;-77
2020/12/24 07:21:50;;;;;;;0.47;0.40;;;;;;;3.49;77.56;100880.97;4911292;29;20023;-77
2020/12/24 07:24:25;;;;;;;2.55;0.88;;;;;;;3.43;77.23;100898.00;4929738;29;20024;-77
2020/12/24 07:26:55;;;;;;;2.10;0.35;;;;;;;3.41;77.20;100900.09;4934245;29;20030;-77
2020/12/24 07:29:22;;;;;;;4.55;0.30;;;;;;;3.38;77.23;100901.31;4920670;29;20036;-77
2020/12/24 07:31:49;;;;;;;0.32;0.13;;;;;;;3.36;77.59;100905.28;4908992;29;20032;-76
2020/12/24 07:34:15;;;;;;;1.80;0.25;;;;;;;3.32;76.94;100896.75;4925300;29;20114;-75
2020/12/24 07:36:44;;;;;;;0.80;0.20;;;;;;;3.28;77.17;100901.72;4915454;29;20127;-75
2020/12/24 07:39:10;;;;;;;1.67;0.38;;;;;;;3.23;77.22;100904.22;4927899;29;20390;-75
2020/12/24 07:41:40;;;;;;;0.52;0.30;;;;;;;3.20;77.00;100911.91;4913974;29;20599;-75
2020/12/24 07:44:10;;;;;;;0.50;0.10;;;;;;;3.15;77.82;100915.22;4932770;29;20050;-74
2020/12/24 07:46:35;;;;;;;0.52;0.40;;;;;;;3.08;77.78;100914.38;4923655;29;20039;-74
2020/12/24 07:49:05;;;;;;;0.30;0.10;;;;;;;3.01;77.30;100921.63;4929867;29;20028;-75
2020/12/24 07:51:34;;;;;;;1.77;0.32;;;;;;;2.97;77.05;100932.84;4916651;29;20096;-75
2020/12/24 07:54:12;;;;;;;0.38;0.10;;;;;;;2.92;77.99;100948.84;4932035;29;20040;-75
2020/12/24 07:56:42;;;;;;;1.10;0.80;;;;;;;2.85;77.67;100949.84;4935451;29;20082;-74
2020/12/24 07:59:08;;;;;;;1.15;0.30;;;;;;;2.83;77.35;100963.53;4912790;29;20071;-73
2020/12/24 08:01:33;;;;;;;0.50;0.10;;;;;;;2.82;77.39;100975.41;4927463;29;20134;-83
2020/12/24 08:04:00;;;;;;;1.20;0.20;;;;;;;2.80;77.38;100969.34;4900083;29;20035;-76
2020/12/24 08:06:27;;;;;;;3.50;0.40;;;;;;;2.78;77.30;100979.53;4924007;29;20087;-76
2020/12/24 08:08:53;;;;;;;0.20;0.20;;;;;;;2.73;77.64;100982.00;4929863;29;20111;-81
2020/12/24 08:11:19;;;;;;;2.55;0.50;;;;;;;2.74;78.71;100989.06;4907538;29;20040;-79
2020/12/24 08:13:44;;;;;;;0.17;0.10;;;;;;;2.72;78.83;100983.06;4930352;29;20051;-74
2020/12/24 08:16:12;;;;;;;1.38;0.40;;;;;;;2.79;77.77;100992.84;4918142;29;21031;-75
2020/12/24 08:18:44;;;;;;;1.13;0.45;;;;;;;2.87;78.10;100993.72;4918385;29;21401;-75
2020/12/24 08:21:17;;;;;;;8.15;0.30;;;;;;;2.96;78.72;101001.44;4927025;29;20035;-73
2020/12/24 08:23:51;;;;;;;0.80;0.10;;;;;;;3.03;78.21;101000.63;4930973;29;20062;-74
2020/12/24 08:26:19;;;;;;;3.92;0.38;;;;;;;3.06;78.15;101008.34;4912261;29;20043;-72
2020/12/24 08:28:56;;;;;;;0.30;0.10;;;;;;;3.12;78.25;101021.03;4929427;29;20074;-72
2020/12/24 08:31:23;;;;;;;2.17;0.40;;;;;;;3.13;77.92;101025.41;4920236;29;20055;-72
2020/12/24 08:33:51;;;;;;;1.50;0.38;;;;;;;3.17;77.89;101023.97;4932102;29;20035;-75
2020/12/24 08:36:27;;;;;;;1.55;0.47;;;;;;;3.14;77.45;101024.38;4929902;29;20083;-72
2020/12/24 08:39:06;;;;;;;0.32;0.10;;;;;;;3.11;76.88;101035.56;4928506;29;20092;-73
2020/12/24 08:41:35;;;;;;;1.27;0.20;;;;;;;3.06;77.38;101047.00;4936176;28;20054;-72
2020/12/24 08:44:04;;;;;;;4.18;0.50;;;;;;;3.02;77.09;101053.00;4924313;29;20042;-74
2020/12/24 08:46:29;;;;;;;1.33;0.17;;;;;;;2.97;77.71;101049.03;4930593;29;21017;-73
2020/12/24 08:48:55;;;;;;;1.65;0.40;;;;;;;2.96;76.92;101047.38;4935374;29;20096;-75
2020/12/24 08:51:21;;;;;;;0.17;0.13;;;;;;;2.96;77.22;101055.50;4934148;29;20077;-72
2020/12/24 08:53:47;;;;;;;3.03;0.40;;;;;;;2.96;77.43;101055.50;4914415;29;20027;-74
2020/12/24 08:56:15;;;;;;;0.60;0.28;;;;;;;2.97;77.51;101059.00;4926941;29;20032;-72
2020/12/24 08:58:51;;;;;;;5.00;0.35;;;;;;;2.97;76.79;101067.94;4924909;29;20036;-75
2020/12/24 09:01:17;;;;;;;1.73;0.43;;;;;;;2.99;76.83;101075.03;4913098;29;20039;-73
2020/12/24 09:03:43;;;;;;;7.30;0.40;;;;;;;3.00;76.89;101082.09;4929851;29;20037;-74
2020/12/24 09:06:11;;;;;;;4.32;0.32;;;;;;;3.02;76.98;101080.03;4905779;29;20024;-73
2020/12/24 09:08:37;;;;;;;0.50;0.38;;;;;;;3.02;76.84;101086.25;4900983;29;20020;-73
2020/12/24 09:11:03;;;;;;;0.85;0.10;;;;;;;3.04;77.34;101091.44;4922426;29;20038;-73
2020/12/24 09:13:28;;;;;;;0.38;0.10;;;;;;;3.07;76.74;101096.50;4900988;29;20032;-73
2020/12/24 09:15:54;;;;;;;3.58;0.28;;;;;;;3.09;77.57;101081.72;4919046;29;20040;-73
2020/12/24 09:18:19;;;;;;;0.20;0.10;;;;;;;3.11;76.61;101095.03;4920215;29;20035;-72
2020/12/24 09:20:45;;;;;;;3.10;0.35;;;;;;;3.12;77.16;101096.72;4934232;29;20470;-74
2020/12/24 09:23:13;;;;;;;0.98;0.30;;;;;;;3.15;76.78;101093.59;4929981;29;20391;-73
2020/12/24 09:25:41;;;;;;;3.00;0.75;;;;;;;3.21;76.38;101102.78;4933281;29;20054;-73
2020/12/24 09:28:26;;;;;;;0.50;0.13;;;;;;;3.22;76.47;101102.56;4928493;29;20027;-73
2020/12/24 09:30:54;;;;;;;2.55;0.50;;;;;;;3.26;76.97;101093.03;4928815;29;20066;-73
2020/12/24 09:33:19;;;;;;;0.80;0.55;;;;;;;3.29;76.72;101103.44;4921610;29;20028;-73
2020/12/24 09:35:45;;;;;;;1.50;0.13;;;;;;;3.35;76.25;101111.78;4932719;29;20083;-73
2020/12/24 09:38:11;;;;;;;0.35;0.15;;;;;;;3.43;76.39;101125.97;4923218;29;20059;-75
2020/12/24 09:40:38;;;;;;;1.73;0.20;;;;;;;3.51;76.63;101138.47;4932376;29;20046;-73
2020/12/24 09:43:04;;;;;;;0.35;0.10;;;;;;;3.74;76.86;101137.31;4913833;29;20024;-73
2020/12/24 09:45:29;;;;;;;4.07;0.82;;;;;;;4.54;77.98;101138.28;4901569;29;20486;-73
2020/12/24 09:47:55;;;;;;;0.20;0.20;;;;;;;5.79;77.26;101139.19;4929501;29;20027;-72
2020/12/24 09:50:22;;;;;;;1.50;0.30;;;;;;;7.00;74.04;101147.31;4926004;29;20028;-72
2020/12/24 09:52:47;;;;;;;0.20;0.20;;;;;;;8.11;71.52;101155.41;4913299;29;20024;-72
2020/12/24 09:55:13;;;;;;;0.20;0.10;;;;;;;9.07;67.46;101154.50;4928193;29;20374;-73
2020/12/24 09:57:38;;;;;;;0.70;0.10;;;;;;;9.83;66.07;101156.34;4927645;29;20032;-73
2020/12/24 10:00:05;;;;;;;0.73;0.17;;;;;;;10.51;63.50;101165.56;4930025;29;20123;-73
2020/12/24 10:02:31;;;;;;;0.20;0.00;;;;;;;11.16;63.18;101160.56;4927457;29;20793;-73
2020/12/24 10:04:56;;;;;;;1.30;0.60;;;;;;;11.68;58.72;101162.88;4912133;29;20036;-72
2020/12/24 10:07:22;;;;;;;1.27;0.30;;;;;;;12.14;55.32;101180.97;4930839;29;20042;-73
2020/12/24 10:09:52;;;;;;;0.30;0.20;;;;;;;12.48;54.54;101176.06;4929565;29;20031;-72
2020/12/24 10:12:22;;;;;;;0.10;0.10;;;;;;;12.90;55.22;101183.56;4926020;29;20055;-73
2020/12/24 10:14:47;;;;;;;0.32;0.10;;;;;;;13.34;53.08;101177.00;4924121;29;20099;-72
2020/12/24 10:17:14;;;;;;;1.20;0.30;;;;;;;13.77;51.98;101199.75;4915582;29;20419;-73
2020/12/24 10:19:43;;;;;;;0.35;0.10;;;;;;;14.15;52.37;101196.88;4906143;29;20029;-73
2020/12/24 10:22:11;;;;;;;0.17;0.13;;;;;;;14.59;49.63;101203.81;4925027;29;20601;-72
2020/12/24 10:24:38;;;;;;;0.30;0.20;;;;;;;14.90;48.10;101195.59;4933475;29;20036;-73
2020/12/24 10:27:04;;;;;;;1.70;0.22;;;;;;;15.17;46.31;101201.63;4892523;29;20094;-74
2020/12/24 10:29:29;;;;;;;0.60;0.10;;;;;;;15.32;45.32;101208.22;4931652;29;20461;-73
2020/12/24 10:31:55;;;;;;;5.50;0.35;;;;;;;15.54;45.08;101205.94;4926421;29;20040;-73
2020/12/24 10:34:20;;;;;;;4.20;0.38;;;;;;;15.76;44.51;101207.50;4885394;29;20038;-74
2020/12/24 10:36:46;;;;;;;0.00;0.00;;;;;;;16.10;44.16;101212.34;4932864;29;20078;-74
2020/12/24 10:39:12;;;;;;;1.15;0.68;;;;;;;16.51;44.43;101217.59;4926521;29;20070;-73
2020/12/24 10:41:39;;;;;;;5.38;0.22;;;;;;;16.92;43.09;101211.81;4928752;29;20048;-74
2020/12/24 10:44:05;;;;;;;0.57;0.30;;;;;;;17.19;41.30;101212.41;4913340;29;20091;-73
2020/12/24 10:46:32;;;;;;;1.75;0.20;;;;;;;17.38;40.09;101220.78;4913477;29;20565;-73
2020/12/24 10:48:58;;;;;;;0.57;0.20;;;;;;;17.52;40.07;101223.66;4912966;29;20353;-73
2020/12/24 10:51:26;;;;;;;0.30;0.15;;;;;;;17.76;41.31;101229.19;4917486;29;20036;-73
2020/12/24 10:53:55;;;;;;;2.90;0.30;;;;;;;18.18;40.04;101226.75;4922655;29;20106;-73
2020/12/24 10:56:20;;;;;;;0.73;0.20;;;;;;;18.47;39.38;101226.59;4927214;29;20047;-74
2020/12/24 10:58:46;;;;;;;2.15;0.57;;;;;;;18.66;36.85;101230.19;4915099;29;20465;-74
2020/12/24 11:01:14;;;;;;;1.33;0.40;;;;;;;18.72;37.81;101227.31;4933469;29;20110;-73
2020/12/24 11:03:40;;;;;;;0.50;0.30;;;;;;;18.90;35.67;101229.28;4930880;29;20044;-74
2020/12/24 11:06:16;;;;;;;0.88;0.28;;;;;;;19.05;36.47;101224.59;4935678;29;20154;-74
2020/12/24 11:08:41;;;;;;;0.88;0.40;;;;;;;19.35;36.16;101235.13;4929927;29;20023;-73
2020/12/24 11:11:07;;;;;;;0.88;0.28;;;;;;;19.60;35.81;101223.88;4921826;29;20063;-73
2020/12/24 11:13:32;;;;;;;2.83;0.40;;;;;;;19.91;36.48;101234.38;4928617;29;20039;-73
2020/12/24 11:15:58;;;;;;;0.20;0.20;;;;;;;20.20;35.40;101231.25;4937522;29;20028;-73
2020/12/24 11:18:23;;;;;;;0.32;0.30;;;;;;;20.54;35.26;101232.69;4921331;29;20040;-74
2020/12/24 11:20:49;;;;;;;0.95;0.30;;;;;;;20.75;33.70;101231.09;4941400;29;20035;-74
2020/12/24 11:23:14;;;;;;;0.20;0.20;;;;;;;20.91;33.60;101225.97;4932601;29;20100;-73
2020/12/24 11:25:40;;;;;;;0.85;0.20;;;;;;;21.15;35.06;101233.16;4934284;29;20032;-73
2020/12/24 11:28:05;;;;;;;2.53;0.50;;;;;;;21.49;33.31;101233.66;4930939;29;20032;-73
2020/12/24 11:30:32;;;;;;;0.30;0.13;;;;;;;21.86;34.32;101223.16;4933559;29;20036;-73
2020/12/24 11:32:58;;;;;;;0.10;0.10;;;;;;;22.33;33.94;101230.97;4932736;29;20647;-73
2020/12/24 11:35:24;;;;;;;1.02;0.40;;;;;;;22.84;33.88;101235.72;4923221;29;20024;-73
2020/12/24 11:37:49;;;;;;;1.23;0.20;;;;;;;23.24;32.14;101231.09;4907750;29;20023;-73